Keiho Maru — JJ4010 — position and weather

sailwx.info

Track history (hours):
 
Tides and Currents Weather Stations Pressure Air Temp Water Temp Dewpoint Dewpoint Depression Visibility Wind Speed Wind Dir Waves Ship Positions

Keiho Maru

Last reported at 2017-Apr-26 01:51 UTC. Time now 2017-Apr-26 07:47 UTC.
Position N 34°41' E 135°12'.

Length 38 m; draft 3.6 m.

Type: Tug. MMSI: 431401501.

Date/timePositionNaut miles runAvg speedWind from/ knotsBaromVisibWave heightAir tempDewpointWater temp
2017-Apr-26 01:51N 34°41' E 135°12'0 0.0
2017-Apr-26 01:30N 34°41' E 135°12'0 0.0
2017-Apr-26 01:00N 34°41' E 135°12'0 0.0
2017-Apr-26 00:30N 34°41' E 135°12'0 0.0
2017-Apr-25 05:42N 34°41' E 135°12'0 0.0
2017-Apr-25 05:30N 34°41' E 135°12'0 0.0
2017-Apr-25 05:00N 34°41' E 135°12'0 0.0
2017-Apr-25 04:30N 34°41' E 135°12'0 0.0
2017-Apr-25 04:00N 34°41' E 135°12'0 0.0
2017-Apr-25 03:30N 34°41' E 135°12'0 0.0
2017-Apr-25 03:00N 34°41' E 135°12'0 0.0
2017-Apr-25 02:30N 34°41' E 135°12'0 0.0
2017-Apr-25 02:00N 34°41' E 135°12'0 0.0
2017-Apr-25 01:30N 34°41' E 135°12'0 0.0
2017-Apr-25 01:00N 34°41' E 135°12'0 0.0
2017-Apr-25 00:30N 34°41' E 135°12'0 0.0
2017-Apr-25 00:00N 34°41' E 135°12'0 0.0
2017-Apr-24 23:30N 34°41' E 135°12'0 0.0
2017-Apr-24 23:00N 34°41' E 135°12'  
2017-Apr-21 02:17N 34°41' E 135°12'0 0.0
2017-Apr-21 02:00N 34°41' E 135°12'0 0.0
2017-Apr-21 01:31N 34°41' E 135°12'0 0.0
2017-Apr-21 01:00N 34°41' E 135°12'0 0.0
2017-Apr-20 08:40N 34°41' E 135°12'0 0.8
2017-Apr-20 08:30N 34°41' E 135°12'4 8.1
2017-Apr-20 08:00N 34°42' E 135°17'2 4.6
2017-Apr-20 07:30N 34°41' E 135°14'2 3.8
2017-Apr-20 07:00N 34°41' E 135°12'0 0.0
2017-Apr-20 06:30N 34°41' E 135°12'0 0.0
2017-Apr-20 06:00N 34°41' E 135°12'0 0.0
2017-Apr-20 05:30N 34°41' E 135°12'0 0.0
2017-Apr-20 05:00N 34°41' E 135°12'0 0.0
2017-Apr-20 04:30N 34°41' E 135°12'0 0.0
2017-Apr-20 04:00N 34°41' E 135°12'0 0.0
2017-Apr-20 03:30N 34°41' E 135°12'0 0.0
2017-Apr-20 03:00N 34°41' E 135°12'0 0.0
2017-Apr-20 02:30N 34°41' E 135°12'0 0.0
2017-Apr-20 02:00N 34°41' E 135°12'0 0.0
2017-Apr-20 01:30N 34°41' E 135°12'0 0.0
2017-Apr-20 01:00N 34°41' E 135°12'0 0.0
2017-Apr-20 00:30N 34°41' E 135°12'0 0.0
2017-Apr-20 00:00N 34°41' E 135°12'0 0.0
2017-Apr-19 23:30N 34°41' E 135°12'1 2.4
2017-Apr-19 23:00N 34°41' E 135°13'2 3.6
2017-Apr-19 22:30N 34°39' E 135°15'1 2.7
2017-Apr-19 22:00N 34°39' E 135°16'4 7.0
2017-Apr-19 21:30N 34°40' E 135°12'1 1.5
2017-Apr-19 21:00N 34°41' E 135°12'0 0.0
2017-Apr-17 23:44N 34°41' E 135°12'0 1.8
2017-Apr-17 23:31N 34°41' E 135°12'3 5.5
2017-Apr-17 23:00N 34°41' E 135°16'0 0.5
2017-Apr-17 22:30N 34°41' E 135°15'1 2.8
2017-Apr-17 22:00N 34°39' E 135°16'1 2.4
2017-Apr-17 21:30N 34°40' E 135°15'2 4.4
2017-Apr-17 21:00N 34°41' E 135°12'0 0.3
2017-Apr-17 20:31N 34°41' E 135°12'0 0.0
2017-Apr-17 20:01N 34°41' E 135°12'0 0.0
2017-Apr-17 19:30N 34°41' E 135°12'0 0.0
2017-Apr-17 19:00N 34°41' E 135°12'0 0.0
2017-Apr-17 18:31N 34°41' E 135°12'0 0.0
2017-Apr-17 18:00N 34°41' E 135°12'0 0.0
2017-Apr-17 17:31N 34°41' E 135°12'0 0.0
2017-Apr-17 17:01N 34°41' E 135°12'0 0.0
2017-Apr-17 16:30N 34°41' E 135°12'0 0.0
2017-Apr-17 16:01N 34°41' E 135°12'0 0.0
2017-Apr-17 15:31N 34°41' E 135°12'0 0.0
2017-Apr-17 15:01N 34°41' E 135°12'0 0.0
2017-Apr-17 14:31N 34°41' E 135°12'1 1.0
2017-Apr-17 13:31N 34°40' E 135°13'0 0.0
2017-Apr-17 13:00N 34°40' E 135°13'0 0.0
2017-Apr-17 12:30N 34°40' E 135°13'0 0.0
2017-Apr-17 12:00N 34°40' E 135°13'1 1.7
2017-Apr-17 11:31N 34°40' E 135°14'1 1.2
2017-Apr-17 11:01N 34°40' E 135°15'1 1.2
2017-Apr-17 10:30N 34°40' E 135°15'1 2.5
2017-Apr-17 10:00N 34°41' E 135°17'0 0.0
2017-Apr-17 09:31N 34°41' E 135°17'0 0.0
2017-Apr-17 09:01N 34°41' E 135°17'0 0.0
2017-Apr-17 08:30N 34°41' E 135°17'0 0.0
2017-Apr-17 08:01N 34°41' E 135°17'0 0.0
2017-Apr-17 07:31N 34°41' E 135°17'1 2.7
2017-Apr-17 07:01N 34°42' E 135°18'1 1.4
2017-Apr-17 06:31N 34°42' E 135°17'2 4.8
2017-Apr-17 06:01N 34°41' E 135°14'3 5.0
2017-Apr-17 05:31N 34°40' E 135°11'0 0.3
2017-Apr-17 05:01N 34°40' E 135°11'0 0.4
2017-Apr-17 04:31N 34°40' E 135°11'1 1.8
2017-Apr-17 04:00N 34°41' E 135°12'0 0.0
2017-Apr-17 03:30N 34°41' E 135°12'0 0.0
2017-Apr-17 03:00N 34°41' E 135°12'0 0.0
2017-Apr-17 02:30N 34°41' E 135°12'0 0.0
2017-Apr-17 02:00N 34°41' E 135°12'0 0.3
2017-Apr-17 01:31N 34°41' E 135°12'3 6.4
2017-Apr-17 01:01N 34°42' E 135°16'0 0.0
2017-Apr-17 00:31N 34°42' E 135°16'0 0.5
2017-Apr-17 00:00N 34°42' E 135°15'1 1.9
2017-Apr-16 23:31N 34°41' E 135°15'1 1.9
2017-Apr-16 23:01N 34°40' E 135°15'2 3.8
2017-Apr-16 22:31N 34°41' E 135°13'0 1.0
2017-Apr-16 22:00N 34°41' E 135°12'0 0.0
2017-Apr-16 21:31N 34°41' E 135°12'0 0.0
2017-Apr-16 21:01N 34°41' E 135°12'0 0.0
2017-Apr-16 05:59N 34°41' E 135°12'0 0.0
2017-Apr-16 05:30N 34°41' E 135°12'0 0.0
2017-Apr-16 05:00N 34°41' E 135°12'0 0.0
2017-Apr-16 04:30N 34°41' E 135°12'0 0.0
2017-Apr-16 04:00N 34°41' E 135°12'0 0.0
2017-Apr-16 03:31N 34°41' E 135°12'0 0.0
2017-Apr-16 03:01N 34°41' E 135°12'0 0.0
2017-Apr-16 02:30N 34°41' E 135°12'0 0.0
2017-Apr-16 02:01N 34°41' E 135°12'  
Track history (hours):
 
Tides and Currents Weather Stations Pressure Air Temp Water Temp Dewpoint Dewpoint Depression Visibility Wind Speed Wind Dir Waves Ship Positions

Keiho Maru

Last reported at 2017-Apr-26 01:51 UTC. Time now 2017-Apr-26 07:47 UTC.
Position N 34°41' E 135°12'.

Length 38 m; draft 3.6 m.

Type: Tug. MMSI: 431401501.

Date/timePositionNaut miles runAvg speedWind from/ knotsBaromVisibWave heightAir tempDewpointWater temp
2017-Apr-26 01:51N 34°41' E 135°12'0 0.0
2017-Apr-26 01:30N 34°41' E 135°12'0 0.0
2017-Apr-26 01:00N 34°41' E 135°12'0 0.0
2017-Apr-26 00:30N 34°41' E 135°12'0 0.0
2017-Apr-25 05:42N 34°41' E 135°12'0 0.0
2017-Apr-25 05:30N 34°41' E 135°12'0 0.0
2017-Apr-25 05:00N 34°41' E 135°12'0 0.0
2017-Apr-25 04:30N 34°41' E 135°12'0 0.0
2017-Apr-25 04:00N 34°41' E 135°12'0 0.0
2017-Apr-25 03:30N 34°41' E 135°12'0 0.0
2017-Apr-25 03:00N 34°41' E 135°12'0 0.0
2017-Apr-25 02:30N 34°41' E 135°12'0 0.0
2017-Apr-25 02:00N 34°41' E 135°12'0 0.0
2017-Apr-25 01:30N 34°41' E 135°12'0 0.0
2017-Apr-25 01:00N 34°41' E 135°12'0 0.0
2017-Apr-25 00:30N 34°41' E 135°12'0 0.0
2017-Apr-25 00:00N 34°41' E 135°12'0 0.0
2017-Apr-24 23:30N 34°41' E 135°12'0 0.0
2017-Apr-24 23:00N 34°41' E 135°12'  
2017-Apr-21 02:17N 34°41' E 135°12'0 0.0
2017-Apr-21 02:00N 34°41' E 135°12'0 0.0
2017-Apr-21 01:31N 34°41' E 135°12'0 0.0
2017-Apr-21 01:00N 34°41' E 135°12'0 0.0
2017-Apr-20 08:40N 34°41' E 135°12'0 0.8
2017-Apr-20 08:30N 34°41' E 135°12'4 8.1
2017-Apr-20 08:00N 34°42' E 135°17'2 4.6
2017-Apr-20 07:30N 34°41' E 135°14'2 3.8
2017-Apr-20 07:00N 34°41' E 135°12'0 0.0
2017-Apr-20 06:30N 34°41' E 135°12'0 0.0
2017-Apr-20 06:00N 34°41' E 135°12'0 0.0
2017-Apr-20 05:30N 34°41' E 135°12'0 0.0
2017-Apr-20 05:00N 34°41' E 135°12'0 0.0
2017-Apr-20 04:30N 34°41' E 135°12'0 0.0
2017-Apr-20 04:00N 34°41' E 135°12'0 0.0
2017-Apr-20 03:30N 34°41' E 135°12'0 0.0
2017-Apr-20 03:00N 34°41' E 135°12'0 0.0
2017-Apr-20 02:30N 34°41' E 135°12'0 0.0
2017-Apr-20 02:00N 34°41' E 135°12'0 0.0
2017-Apr-20 01:30N 34°41' E 135°12'0 0.0
2017-Apr-20 01:00N 34°41' E 135°12'0 0.0
2017-Apr-20 00:30N 34°41' E 135°12'0 0.0
2017-Apr-20 00:00N 34°41' E 135°12'0 0.0
2017-Apr-19 23:30N 34°41' E 135°12'1 2.4
2017-Apr-19 23:00N 34°41' E 135°13'2 3.6
2017-Apr-19 22:30N 34°39' E 135°15'1 2.7
2017-Apr-19 22:00N 34°39' E 135°16'4 7.0
2017-Apr-19 21:30N 34°40' E 135°12'1 1.5
2017-Apr-19 21:00N 34°41' E 135°12'0 0.0
2017-Apr-17 23:44N 34°41' E 135°12'0 1.8
2017-Apr-17 23:31N 34°41' E 135°12'3 5.5
2017-Apr-17 23:00N 34°41' E 135°16'0 0.5
2017-Apr-17 22:30N 34°41' E 135°15'1 2.8
2017-Apr-17 22:00N 34°39' E 135°16'1 2.4
2017-Apr-17 21:30N 34°40' E 135°15'2 4.4
2017-Apr-17 21:00N 34°41' E 135°12'0 0.3
2017-Apr-17 20:31N 34°41' E 135°12'0 0.0
2017-Apr-17 20:01N 34°41' E 135°12'0 0.0
2017-Apr-17 19:30N 34°41' E 135°12'0 0.0
2017-Apr-17 19:00N 34°41' E 135°12'0 0.0
2017-Apr-17 18:31N 34°41' E 135°12'0 0.0
2017-Apr-17 18:00N 34°41' E 135°12'0 0.0
2017-Apr-17 17:31N 34°41' E 135°12'0 0.0
2017-Apr-17 17:01N 34°41' E 135°12'0 0.0
2017-Apr-17 16:30N 34°41' E 135°12'0 0.0
2017-Apr-17 16:01N 34°41' E 135°12'0 0.0
2017-Apr-17 15:31N 34°41' E 135°12'0 0.0
2017-Apr-17 15:01N 34°41' E 135°12'0 0.0
2017-Apr-17 14:31N 34°41' E 135°12'1 1.0
2017-Apr-17 13:31N 34°40' E 135°13'0 0.0
2017-Apr-17 13:00N 34°40' E 135°13'0 0.0
2017-Apr-17 12:30N 34°40' E 135°13'0 0.0
2017-Apr-17 12:00N 34°40' E 135°13'1 1.7
2017-Apr-17 11:31N 34°40' E 135°14'1 1.2
2017-Apr-17 11:01N 34°40' E 135°15'1 1.2
2017-Apr-17 10:30N 34°40' E 135°15'1 2.5
2017-Apr-17 10:00N 34°41' E 135°17'0 0.0
2017-Apr-17 09:31N 34°41' E 135°17'0 0.0
2017-Apr-17 09:01N 34°41' E 135°17'0 0.0
2017-Apr-17 08:30N 34°41' E 135°17'0 0.0
2017-Apr-17 08:01N 34°41' E 135°17'0 0.0
2017-Apr-17 07:31N 34°41' E 135°17'1 2.7
2017-Apr-17 07:01N 34°42' E 135°18'1 1.4
2017-Apr-17 06:31N 34°42' E 135°17'2 4.8
2017-Apr-17 06:01N 34°41' E 135°14'3 5.0
2017-Apr-17 05:31N 34°40' E 135°11'0 0.3
2017-Apr-17 05:01N 34°40' E 135°11'0 0.4
2017-Apr-17 04:31N 34°40' E 135°11'1 1.8
2017-Apr-17 04:00N 34°41' E 135°12'0 0.0
2017-Apr-17 03:30N 34°41' E 135°12'0 0.0
2017-Apr-17 03:00N 34°41' E 135°12'0 0.0
2017-Apr-17 02:30N 34°41' E 135°12'0 0.0
2017-Apr-17 02:00N 34°41' E 135°12'0 0.3
2017-Apr-17 01:31N 34°41' E 135°12'3 6.4
2017-Apr-17 01:01N 34°42' E 135°16'0 0.0
2017-Apr-17 00:31N 34°42' E 135°16'0 0.5
2017-Apr-17 00:00N 34°42' E 135°15'1 1.9
2017-Apr-16 23:31N 34°41' E 135°15'1 1.9
2017-Apr-16 23:01N 34°40' E 135°15'2 3.8
2017-Apr-16 22:31N 34°41' E 135°13'0 1.0
2017-Apr-16 22:00N 34°41' E 135°12'0 0.0
2017-Apr-16 21:31N 34°41' E 135°12'0 0.0
2017-Apr-16 21:01N 34°41' E 135°12'0 0.0
2017-Apr-16 05:59N 34°41' E 135°12'0 0.0
2017-Apr-16 05:30N 34°41' E 135°12'0 0.0
2017-Apr-16 05:00N 34°41' E 135°12'0 0.0
2017-Apr-16 04:30N 34°41' E 135°12'0 0.0
2017-Apr-16 04:00N 34°41' E 135°12'0 0.0
2017-Apr-16 03:31N 34°41' E 135°12'0 0.0
2017-Apr-16 03:01N 34°41' E 135°12'0 0.0
2017-Apr-16 02:30N 34°41' E 135°12'0 0.0
2017-Apr-16 02:01N 34°41' E 135°12'  

Dump ship's entire track history